createdAt,value
2018-12-31T00:00:51.458Z,0.00
2018-12-31T00:01:51.440Z,0.00
2018-12-31T00:02:51.436Z,0.00
2018-12-31T00:03:51.412Z,0.00
2018-12-31T00:04:51.401Z,0.00
2018-12-31T00:05:51.388Z,0.00
2018-12-31T00:06:51.379Z,0.00
2018-12-31T00:07:51.401Z,0.00
2018-12-31T00:08:51.361Z,0.00
2018-12-31T00:09:51.343Z,0.00
2018-12-31T00:10:51.337Z,0.00
2018-12-31T00:11:51.329Z,0.00
2018-12-31T00:12:51.331Z,0.00
2018-12-31T00:13:51.299Z,0.00
2018-12-31T00:14:51.298Z,0.00
2018-12-31T00:15:51.277Z,0.00
2018-12-31T00:16:51.277Z,0.00
2018-12-31T00:17:51.279Z,0.00
2018-12-31T00:18:51.241Z,0.00
2018-12-31T00:19:51.233Z,0.00
2018-12-31T00:20:51.220Z,0.00
2018-12-31T00:21:51.211Z,0.00
2018-12-31T00:22:51.213Z,0.00
2018-12-31T00:23:51.187Z,0.00
2018-12-31T00:24:51.176Z,0.00
2018-12-31T00:25:51.167Z,0.00
2018-12-31T00:26:51.152Z,0.00
2018-12-31T00:27:51.156Z,0.00
2018-12-31T00:28:51.137Z,0.00
2018-12-31T00:29:51.124Z,0.00
2018-12-31T00:30:51.110Z,0.00
2018-12-31T00:31:51.098Z,0.00
2018-12-31T00:32:51.103Z,0.00
2018-12-31T00:33:51.100Z,0.00
2018-12-31T00:34:51.082Z,0.00
2018-12-31T00:35:51.052Z,0.00
2018-12-31T00:36:51.047Z,0.00
2018-12-31T00:37:51.144Z,0.00
2018-12-31T00:38:51.020Z,0.00
2018-12-31T00:39:51.014Z,0.00
2018-12-31T00:40:50.997Z,0.00
2018-12-31T00:41:50.987Z,0.00
2018-12-31T00:42:50.979Z,0.00
2018-12-31T00:43:50.977Z,0.00
2018-12-31T00:44:50.953Z,0.00
2018-12-31T00:45:50.960Z,0.00
2018-12-31T00:46:50.932Z,0.00
2018-12-31T00:47:50.935Z,0.00
2018-12-31T00:48:50.928Z,0.00
2018-12-31T00:49:50.912Z,0.00
2018-12-31T00:50:50.893Z,0.00
2018-12-31T00:51:50.877Z,0.00
2018-12-31T00:52:50.870Z,0.00
2018-12-31T00:53:50.866Z,0.00
2018-12-31T00:54:50.843Z,0.00
2018-12-31T00:55:50.839Z,0.00
2018-12-31T00:56:50.831Z,0.00
2018-12-31T00:57:50.808Z,0.00
2018-12-31T00:58:50.816Z,0.00
2018-12-31T00:59:50.786Z,0.00
2018-12-31T01:00:50.779Z,0.00
2018-12-31T01:01:50.774Z,0.00
2018-12-31T01:02:50.753Z,0.00
2018-12-31T01:03:50.752Z,0.00
2018-12-31T01:04:50.732Z,0.00
2018-12-31T01:05:50.720Z,0.00
2018-12-31T01:06:50.707Z,0.00
2018-12-31T01:07:50.699Z,0.00
2018-12-31T01:08:50.793Z,0.00
2018-12-31T01:09:50.671Z,0.00
2018-12-31T01:10:50.663Z,0.00
2018-12-31T01:11:50.651Z,0.00
2018-12-31T01:12:50.640Z,0.00
2018-12-31T01:13:50.651Z,0.00
2018-12-31T01:14:50.618Z,0.00
2018-12-31T01:15:50.615Z,0.00
2018-12-31T01:16:50.596Z,0.00
2018-12-31T01:17:50.585Z,0.00
2018-12-31T01:18:50.587Z,0.00
2018-12-31T01:19:50.561Z,0.00
2018-12-31T01:20:50.599Z,0.00
2018-12-31T01:21:50.538Z,0.00
2018-12-31T01:22:50.527Z,0.00
2018-12-31T01:23:50.538Z,0.00
2018-12-31T01:24:50.510Z,0.00
2018-12-31T01:25:50.502Z,0.00
2018-12-31T01:26:50.483Z,0.00
2018-12-31T01:27:50.473Z,0.00
2018-12-31T01:28:50.464Z,0.00
2018-12-31T01:29:50.468Z,0.00
2018-12-31T01:30:50.456Z,0.00
2018-12-31T01:31:50.427Z,0.00
2018-12-31T01:32:50.418Z,0.00
2018-12-31T01:33:50.411Z,0.00
2018-12-31T01:34:50.409Z,0.00
2018-12-31T01:35:50.398Z,0.00
2018-12-31T01:36:50.375Z,0.00
2018-12-31T01:37:50.363Z,0.00
2018-12-31T01:38:50.348Z,0.00
2018-12-31T01:39:50.357Z,0.00
2018-12-31T01:40:50.330Z,0.00
2018-12-31T01:41:50.329Z,0.00
2018-12-31T01:42:50.305Z,0.00
2018-12-31T01:43:50.294Z,0.00
2018-12-31T01:44:50.300Z,0.00
2018-12-31T01:45:50.278Z,0.00
2018-12-31T01:46:50.267Z,0.00
2018-12-31T01:47:50.246Z,0.00
2018-12-31T01:48:50.238Z,0.00
2018-12-31T01:49:50.239Z,0.00
2018-12-31T01:50:50.220Z,0.00
2018-12-31T01:51:50.208Z,0.00
2018-12-31T01:52:50.197Z,0.00
2018-12-31T01:53:50.182Z,0.00
2018-12-31T01:54:50.186Z,0.00
2018-12-31T01:55:50.167Z,0.00
2018-12-31T01:56:50.145Z,0.00
2018-12-31T01:57:50.136Z,0.00
2018-12-31T01:58:50.139Z,0.00
2018-12-31T01:59:50.139Z,0.00
2018-12-31T02:00:50.107Z,0.00
2018-12-31T02:01:50.092Z,0.00
2018-12-31T02:02:50.088Z,0.00
2018-12-31T02:03:50.080Z,0.00
2018-12-31T02:04:50.083Z,0.00
2018-12-31T02:05:50.054Z,0.00
2018-12-31T02:06:50.042Z,0.00
2018-12-31T02:07:50.049Z,0.00
2018-12-31T02:08:50.023Z,0.00
2018-12-31T02:09:50.019Z,0.00
2018-12-31T02:10:49.990Z,0.00
2018-12-31T02:11:49.988Z,0.00
2018-12-31T02:12:49.967Z,0.00
2018-12-31T02:13:49.961Z,0.00
2018-12-31T02:14:49.960Z,0.00
2018-12-31T02:15:49.933Z,0.00
2018-12-31T02:16:49.931Z,0.00
2018-12-31T02:17:49.913Z,0.00
2018-12-31T02:18:49.902Z,0.00
2018-12-31T02:19:49.899Z,0.00
2018-12-31T02:20:49.882Z,0.00
2018-12-31T02:21:49.866Z,0.00
2018-12-31T02:22:49.865Z,0.00
2018-12-31T02:23:49.855Z,0.00
2018-12-31T02:24:49.843Z,0.00
2018-12-31T02:25:49.821Z,0.00
2018-12-31T02:26:49.810Z,0.00
2018-12-31T02:27:49.803Z,0.00
2018-12-31T02:28:49.791Z,0.00
2018-12-31T02:29:49.830Z,0.00
2018-12-31T02:30:49.770Z,0.00
2018-12-31T02:31:49.785Z,0.00
2018-12-31T02:32:49.750Z,0.00
2018-12-31T02:33:49.746Z,0.00
2018-12-31T02:34:49.731Z,0.00
2018-12-31T02:35:49.733Z,0.00
2018-12-31T02:36:49.709Z,0.00
2018-12-31T02:37:49.701Z,0.00
2018-12-31T02:38:49.678Z,0.00
2018-12-31T02:39:49.683Z,0.00
2018-12-31T02:40:49.673Z,0.00
2018-12-31T02:41:49.644Z,0.00
2018-12-31T02:42:49.661Z,0.00
2018-12-31T02:43:49.625Z,0.00
2018-12-31T02:44:49.636Z,0.00
2018-12-31T02:45:49.610Z,0.00
2018-12-31T02:46:49.605Z,0.00
2018-12-31T02:47:49.579Z,0.00
2018-12-31T02:48:49.570Z,0.00
2018-12-31T02:49:49.552Z,0.00
2018-12-31T02:50:49.751Z,0.00
2018-12-31T02:51:49.533Z,0.00
2018-12-31T02:52:49.528Z,0.00
2018-12-31T02:53:49.510Z,0.00
2018-12-31T02:54:49.497Z,0.00
2018-12-31T02:55:49.498Z,0.00
2018-12-31T02:56:49.475Z,0.00
2018-12-31T02:57:49.465Z,0.00
2018-12-31T02:58:49.481Z,0.00
2018-12-31T02:59:49.450Z,0.00
2018-12-31T03:00:49.444Z,0.00
2018-12-31T03:01:49.422Z,0.00
2018-12-31T03:02:49.406Z,0.00
2018-12-31T03:03:49.398Z,0.00
2018-12-31T03:04:49.404Z,0.00
2018-12-31T03:05:49.408Z,0.00
2018-12-31T03:06:49.364Z,0.00
2018-12-31T03:07:49.353Z,0.00
2018-12-31T03:08:49.352Z,0.00
2018-12-31T03:09:49.332Z,0.00
2018-12-31T03:10:49.338Z,0.00
2018-12-31T03:11:49.319Z,0.00
2018-12-31T03:12:49.297Z,0.00
2018-12-31T03:13:49.289Z,0.00
2018-12-31T03:14:49.286Z,0.00
2018-12-31T03:15:49.293Z,0.00
2018-12-31T03:16:49.257Z,0.00
2018-12-31T03:17:49.240Z,0.00
2018-12-31T03:18:49.231Z,0.00
2018-12-31T03:19:49.226Z,0.00
2018-12-31T03:20:49.227Z,0.00
2018-12-31T03:21:49.204Z,0.00
2018-12-31T03:22:49.185Z,0.00
2018-12-31T03:23:49.173Z,0.00
2018-12-31T03:24:49.162Z,0.00
2018-12-31T03:25:49.166Z,0.00
2018-12-31T03:26:49.146Z,0.00
2018-12-31T03:27:49.144Z,0.00
2018-12-31T03:28:49.123Z,0.00
2018-12-31T03:29:49.107Z,0.00
2018-12-31T03:30:49.108Z,0.00
2018-12-31T03:31:49.088Z,0.00
2018-12-31T03:32:49.083Z,0.00
2018-12-31T03:33:49.063Z,0.00
2018-12-31T03:34:49.051Z,0.00
2018-12-31T03:35:49.049Z,0.00
2018-12-31T03:36:49.034Z,0.00
2018-12-31T03:37:49.021Z,0.00
2018-12-31T03:38:49.017Z,0.00
2018-12-31T03:39:48.994Z,0.00
2018-12-31T03:40:49.025Z,0.00
2018-12-31T03:41:48.974Z,0.00
2018-12-31T03:42:48.972Z,0.00
2018-12-31T03:43:48.952Z,0.00
2018-12-31T03:44:48.956Z,0.00
2018-12-31T03:45:48.929Z,0.00
2018-12-31T03:46:48.933Z,0.00
2018-12-31T03:47:48.908Z,0.00
2018-12-31T03:48:48.904Z,0.00
2018-12-31T03:49:48.892Z,0.00
2018-12-31T03:50:48.872Z,0.00
2018-12-31T03:51:48.884Z,0.00
2018-12-31T03:52:48.852Z,0.00
2018-12-31T03:53:48.838Z,0.00
2018-12-31T03:54:48.827Z,0.00
2018-12-31T03:55:48.818Z,0.00
2018-12-31T03:56:50.467Z,0.00
2018-12-31T03:57:48.792Z,0.00
2018-12-31T03:58:48.787Z,0.00
2018-12-31T03:59:48.788Z,0.00
2018-12-31T04:00:48.763Z,0.00
2018-12-31T04:01:48.767Z,0.00
2018-12-31T04:02:48.743Z,0.00
2018-12-31T04:03:48.733Z,0.00
2018-12-31T04:04:48.716Z,0.00
2018-12-31T04:05:48.712Z,0.00
2018-12-31T04:06:48.739Z,0.00
2018-12-31T04:07:52.979Z,0.00
2018-12-31T04:08:48.678Z,0.00
2018-12-31T04:09:48.661Z,0.00
2018-12-31T04:10:48.647Z,0.00
2018-12-31T04:11:48.656Z,0.00
2018-12-31T04:12:48.633Z,0.00
2018-12-31T04:13:48.620Z,0.00
2018-12-31T04:14:48.604Z,0.00
2018-12-31T04:15:48.597Z,0.00
2018-12-31T04:16:48.600Z,0.00
2018-12-31T04:17:48.577Z,0.00
2018-12-31T04:18:48.558Z,0.00
2018-12-31T04:19:48.550Z,0.00
2018-12-31T04:20:48.537Z,0.00
2018-12-31T04:21:48.541Z,0.00
2018-12-31T04:22:48.527Z,0.00
2018-12-31T04:23:48.518Z,0.00
2018-12-31T04:24:48.494Z,0.00
2018-12-31T04:25:48.482Z,0.00
2018-12-31T04:26:48.488Z,0.00
2018-12-31T04:27:48.461Z,0.00
2018-12-31T04:28:48.454Z,0.00
2018-12-31T04:29:48.438Z,0.00
2018-12-31T04:30:48.428Z,0.00
2018-12-31T04:31:48.427Z,0.00
2018-12-31T04:32:48.404Z,0.00
2018-12-31T04:33:48.398Z,0.00
2018-12-31T04:34:48.382Z,0.00
2018-12-31T04:35:48.373Z,0.00
2018-12-31T04:36:48.396Z,0.00
2018-12-31T04:37:48.354Z,0.00
2018-12-31T04:38:48.340Z,0.00
2018-12-31T04:39:48.339Z,0.00
2018-12-31T04:40:48.323Z,0.00
2018-12-31T04:41:48.326Z,0.00
2018-12-31T04:42:48.291Z,0.00
2018-12-31T04:43:48.294Z,0.00
2018-12-31T04:44:48.297Z,0.00
2018-12-31T04:45:48.278Z,0.00
2018-12-31T04:46:48.267Z,0.00
2018-12-31T04:47:48.238Z,0.00
2018-12-31T04:48:48.228Z,0.00
2018-12-31T04:49:48.226Z,0.00
2018-12-31T04:50:48.210Z,0.00
2018-12-31T04:51:48.194Z,0.00
2018-12-31T04:52:48.191Z,0.00
2018-12-31T04:53:48.171Z,0.00
2018-12-31T04:54:48.161Z,0.00
2018-12-31T04:55:48.149Z,0.00
2018-12-31T04:56:48.146Z,0.00
2018-12-31T04:57:48.137Z,0.00
2018-12-31T04:58:48.119Z,0.00
2018-12-31T04:59:48.103Z,0.00
2018-12-31T05:00:48.098Z,0.00
2018-12-31T05:01:48.093Z,0.00
2018-12-31T05:02:48.085Z,0.00
2018-12-31T05:03:48.057Z,0.00
2018-12-31T05:04:48.051Z,0.00
2018-12-31T05:05:48.039Z,0.00
2018-12-31T05:06:48.043Z,0.00
2018-12-31T05:07:48.035Z,0.00
2018-12-31T05:08:48.006Z,0.00
2018-12-31T05:09:47.995Z,0.00
2018-12-31T05:10:47.981Z,0.00
2018-12-31T05:11:49.899Z,0.00
2018-12-31T05:12:47.984Z,0.00
2018-12-31T05:13:47.951Z,0.00
2018-12-31T05:14:47.947Z,0.00
2018-12-31T05:15:47.926Z,0.00
2018-12-31T05:16:47.914Z,0.00
2018-12-31T05:17:47.926Z,0.00
2018-12-31T05:18:47.894Z,0.00
2018-12-31T05:19:47.883Z,0.00
2018-12-31T05:20:47.871Z,0.00
2018-12-31T05:21:47.865Z,0.00
2018-12-31T05:22:47.874Z,0.00
2018-12-31T05:23:47.867Z,0.00
2018-12-31T05:24:47.864Z,0.00
2018-12-31T05:25:47.823Z,0.00
2018-12-31T05:26:47.809Z,0.00
2018-12-31T05:27:47.807Z,0.00
2018-12-31T05:28:47.783Z,0.00
2018-12-31T05:29:47.777Z,0.00
2018-12-31T05:30:47.782Z,0.00
2018-12-31T05:31:47.749Z,0.00
2018-12-31T05:32:47.749Z,0.00
2018-12-31T05:33:47.727Z,0.00
2018-12-31T05:34:47.721Z,0.00
2018-12-31T05:35:47.708Z,0.00
2018-12-31T05:36:47.744Z,0.00
2018-12-31T05:37:47.718Z,0.00
2018-12-31T05:38:47.676Z,0.00
2018-12-31T05:39:47.660Z,0.00
2018-12-31T05:40:47.650Z,0.00
2018-12-31T05:41:47.643Z,0.00
2018-12-31T05:42:47.647Z,0.00
2018-12-31T05:43:47.623Z,0.00
2018-12-31T05:44:47.606Z,0.00
2018-12-31T05:45:47.594Z,0.00
2018-12-31T05:46:47.591Z,0.00
2018-12-31T05:47:47.602Z,0.00
2018-12-31T05:48:47.562Z,0.00
2018-12-31T05:49:47.552Z,0.00
2018-12-31T05:50:47.542Z,0.00
2018-12-31T05:51:47.527Z,0.00
2018-12-31T05:52:47.523Z,0.00
2018-12-31T05:53:47.534Z,0.00
2018-12-31T05:54:47.495Z,0.00
2018-12-31T05:55:47.486Z,0.00
2018-12-31T05:56:47.476Z,0.00
2018-12-31T05:57:47.463Z,0.00
2018-12-31T05:58:47.461Z,0.00
2018-12-31T05:59:47.447Z,0.00
2018-12-31T06:00:47.429Z,0.00
2018-12-31T06:01:47.419Z,0.00
2018-12-31T06:02:47.408Z,0.00
2018-12-31T06:03:47.408Z,0.00
2018-12-31T06:04:47.393Z,0.00
2018-12-31T06:05:47.398Z,0.00
2018-12-31T06:06:47.363Z,0.00
2018-12-31T06:07:47.351Z,0.00
2018-12-31T06:08:47.350Z,0.00
2018-12-31T06:09:47.340Z,0.00
2018-12-31T06:10:47.327Z,0.00
2018-12-31T06:11:47.330Z,0.00
2018-12-31T06:12:47.295Z,0.00
2018-12-31T06:13:47.300Z,0.00
2018-12-31T06:14:47.276Z,0.00
2018-12-31T06:15:47.267Z,0.00
2018-12-31T06:16:47.262Z,0.00
2018-12-31T06:17:47.297Z,0.00
2018-12-31T06:18:47.264Z,0.00
2018-12-31T06:19:47.221Z,0.00
2018-12-31T06:20:47.210Z,0.00
2018-12-31T06:21:47.210Z,0.00
2018-12-31T06:22:47.188Z,0.00
2018-12-31T06:23:47.187Z,0.00
2018-12-31T06:24:47.184Z,0.00
2018-12-31T06:25:47.151Z,0.00
2018-12-31T06:26:47.145Z,0.00
2018-12-31T06:27:47.143Z,0.00
2018-12-31T06:28:47.130Z,0.00
2018-12-31T06:29:47.112Z,0.00
2018-12-31T06:30:47.095Z,0.00
2018-12-31T06:31:47.096Z,0.00
2018-12-31T06:32:47.084Z,0.00
2018-12-31T06:33:47.084Z,0.00
2018-12-31T06:34:47.051Z,0.00
2018-12-31T06:35:47.041Z,0.00
2018-12-31T06:36:47.030Z,0.00
2018-12-31T06:37:47.039Z,0.00
2018-12-31T06:38:47.022Z,0.00
2018-12-31T06:39:47.005Z,0.00
2018-12-31T06:40:46.992Z,0.00
2018-12-31T06:41:46.974Z,0.00
2018-12-31T06:42:46.963Z,0.00
2018-12-31T06:43:46.977Z,0.00
2018-12-31T06:44:46.942Z,0.00
2018-12-31T06:45:46.931Z,0.00
2018-12-31T06:46:46.923Z,0.00
2018-12-31T06:47:46.907Z,0.00
2018-12-31T06:48:46.928Z,0.00
2018-12-31T06:49:46.893Z,0.00
2018-12-31T06:50:46.875Z,0.00
2018-12-31T06:51:46.866Z,0.00
2018-12-31T06:52:46.849Z,0.00
2018-12-31T06:53:46.852Z,0.00
2018-12-31T06:54:46.829Z,0.00
2018-12-31T06:55:46.833Z,0.00
2018-12-31T06:56:46.811Z,0.00
2018-12-31T06:57:46.796Z,0.00
2018-12-31T06:58:46.785Z,0.00
2018-12-31T06:59:46.786Z,0.00
2018-12-31T07:00:46.771Z,0.00
2018-12-31T07:01:46.753Z,4.00
2018-12-31T07:02:46.740Z,4.00
2018-12-31T07:03:46.734Z,4.00
2018-12-31T07:04:46.736Z,0.00
2018-12-31T07:05:46.728Z,0.00
2018-12-31T07:06:46.699Z,4.00
2018-12-31T07:07:46.684Z,4.00
2018-12-31T07:08:46.674Z,4.00
2018-12-31T07:09:46.673Z,4.00
2018-12-31T07:10:46.650Z,8.00
2018-12-31T07:11:46.642Z,4.00
2018-12-31T07:12:46.636Z,8.00
2018-12-31T07:13:46.619Z,8.00
2018-12-31T07:14:46.618Z,8.00
2018-12-31T07:15:46.597Z,12.00
2018-12-31T07:16:46.585Z,16.00
2018-12-31T07:17:46.584Z,16.00
2018-12-31T07:18:46.561Z,16.00
2018-12-31T07:19:46.563Z,20.00
2018-12-31T07:20:46.538Z,24.00
2018-12-31T07:21:46.529Z,20.00
2018-12-31T07:22:46.515Z,24.00
2018-12-31T07:23:46.514Z,28.00
2018-12-31T07:24:46.517Z,32.00
2018-12-31T07:25:46.483Z,36.00
2018-12-31T07:26:46.472Z,40.00
2018-12-31T07:27:46.484Z,44.00
2018-12-31T07:28:46.450Z,52.00
2018-12-31T07:29:46.468Z,68.00
2018-12-31T07:30:46.432Z,52.00
2018-12-31T07:31:46.420Z,56.00
2018-12-31T07:32:46.423Z,64.00
2018-12-31T07:33:46.400Z,72.00
2018-12-31T07:34:46.412Z,80.00
2018-12-31T07:35:46.392Z,80.00
2018-12-31T07:36:46.359Z,84.00
2018-12-31T07:37:46.352Z,88.00
2018-12-31T07:38:46.344Z,104.00
2018-12-31T07:39:46.351Z,116.00
2018-12-31T07:40:46.335Z,112.00
2018-12-31T07:41:46.308Z,120.00
2018-12-31T07:42:46.293Z,124.00
2018-12-31T07:43:46.283Z,152.00
2018-12-31T07:44:46.289Z,156.00
2018-12-31T07:45:46.289Z,124.00
2018-12-31T07:46:46.271Z,128.00
2018-12-31T07:47:46.236Z,132.00
2018-12-31T07:48:46.249Z,128.00
2018-12-31T07:49:46.230Z,144.00
2018-12-31T07:50:46.245Z,148.00
2018-12-31T07:51:46.194Z,144.00
2018-12-31T07:52:46.197Z,132.00
2018-12-31T07:53:46.172Z,156.00
2018-12-31T07:54:46.170Z,168.00
2018-12-31T07:55:46.148Z,164.00
2018-12-31T07:56:46.150Z,148.00
2018-12-31T07:57:46.145Z,140.00
2018-12-31T07:58:46.116Z,144.00
2018-12-31T07:59:46.116Z,168.00
2018-12-31T08:00:46.092Z,184.00
2018-12-31T08:01:46.085Z,196.00
2018-12-31T08:02:46.072Z,208.00
2018-12-31T08:03:46.061Z,212.00
2018-12-31T08:04:46.079Z,200.00
2018-12-31T08:05:46.039Z,216.00
2018-12-31T08:06:46.029Z,228.00
2018-12-31T08:07:46.016Z,224.00
2018-12-31T08:08:46.018Z,208.00
2018-12-31T08:09:45.996Z,216.00
2018-12-31T08:10:45.991Z,220.00
2018-12-31T08:11:45.971Z,244.00
2018-12-31T08:12:45.960Z,272.00
2018-12-31T08:13:45.962Z,284.00
2018-12-31T08:14:45.951Z,296.00
2018-12-31T08:15:45.957Z,340.00
2018-12-31T08:16:45.916Z,360.00
2018-12-31T08:17:45.921Z,388.00
2018-12-31T08:18:45.896Z,412.00
2018-12-31T08:19:45.892Z,408.00
2018-12-31T08:20:45.891Z,392.00
2018-12-31T08:21:45.870Z,440.00
2018-12-31T08:22:45.850Z,580.00
2018-12-31T08:23:45.844Z,612.00
2018-12-31T08:24:45.829Z,576.00
2018-12-31T08:25:45.830Z,576.00
2018-12-31T08:26:45.839Z,564.00
2018-12-31T08:27:45.794Z,580.00
2018-12-31T08:28:45.782Z,660.00
2018-12-31T08:29:45.772Z,748.00
2018-12-31T08:30:45.776Z,776.00
2018-12-31T08:31:45.764Z,768.00
2018-12-31T08:32:45.755Z,732.00
2018-12-31T08:33:45.737Z,772.00
2018-12-31T08:34:45.722Z,912.00
2018-12-31T08:35:45.733Z,1000.00
2018-12-31T08:36:45.696Z,1036.00
2018-12-31T08:37:45.752Z,1028.00
2018-12-31T08:38:45.681Z,972.00
2018-12-31T08:39:45.661Z,968.00
2018-12-31T08:40:45.665Z,1052.00
2018-12-31T08:41:45.640Z,1176.00
2018-12-31T08:42:45.633Z,1208.00
2018-12-31T08:43:45.623Z,1236.00
2018-12-31T08:44:45.606Z,1124.00
2018-12-31T08:45:45.607Z,1004.00
2018-12-31T08:46:45.583Z,944.00
2018-12-31T08:47:45.576Z,968.00
2018-12-31T08:48:45.565Z,992.00
2018-12-31T08:49:45.565Z,916.00
2018-12-31T08:50:45.550Z,972.00
2018-12-31T08:51:45.530Z,908.00
2018-12-31T08:52:45.525Z,888.00
2018-12-31T08:53:45.514Z,1056.00
2018-12-31T08:54:45.494Z,1160.00
2018-12-31T08:55:45.500Z,976.00
2018-12-31T08:56:45.476Z,784.00
2018-12-31T08:57:45.463Z,720.00
2018-12-31T08:58:45.451Z,792.00
2018-12-31T08:59:45.447Z,856.00
2018-12-31T09:00:45.440Z,888.00
2018-12-31T09:01:45.416Z,736.00
2018-12-31T09:02:45.412Z,688.00
2018-12-31T09:03:45.400Z,824.00
2018-12-31T09:04:45.384Z,960.00
2018-12-31T09:05:45.383Z,880.00
2018-12-31T09:06:45.380Z,924.00
2018-12-31T09:07:45.369Z,812.00
2018-12-31T09:08:45.343Z,720.00
2018-12-31T09:09:45.328Z,604.00
2018-12-31T09:10:45.330Z,624.00
2018-12-31T09:11:45.307Z,656.00
2018-12-31T09:12:45.306Z,664.00
2018-12-31T09:13:45.306Z,620.00
2018-12-31T09:14:45.277Z,620.00
2018-12-31T09:15:45.283Z,672.00
2018-12-31T09:16:45.256Z,864.00
2018-12-31T09:17:45.242Z,1140.00
2018-12-31T09:18:45.234Z,1336.00
2018-12-31T09:19:45.225Z,1156.00
2018-12-31T09:20:45.207Z,864.00
2018-12-31T09:21:45.209Z,788.00
2018-12-31T09:22:45.195Z,896.00
2018-12-31T09:23:45.183Z,1104.00
2018-12-31T09:24:45.174Z,1116.00
2018-12-31T09:25:45.164Z,1132.00
2018-12-31T09:26:45.154Z,1200.00
2018-12-31T09:27:45.134Z,1228.00
2018-12-31T09:28:45.164Z,1084.00
2018-12-31T09:29:45.126Z,884.00
2018-12-31T09:30:45.106Z,768.00
2018-12-31T09:31:45.097Z,796.00
2018-12-31T09:32:45.075Z,924.00
2018-12-31T09:33:45.065Z,1012.00
2018-12-31T09:34:45.066Z,952.00
2018-12-31T09:35:45.041Z,936.00
2018-12-31T09:36:45.061Z,896.00
2018-12-31T09:37:45.018Z,1020.00
2018-12-31T09:38:45.007Z,1284.00
2018-12-31T09:39:45.003Z,1596.00
2018-12-31T09:40:45.002Z,1880.00
2018-12-31T09:41:44.992Z,2160.00
2018-12-31T09:42:44.977Z,2084.00
2018-12-31T09:43:44.955Z,2288.00
2018-12-31T09:44:44.942Z,2452.00
2018-12-31T09:45:44.938Z,2360.00
2018-12-31T09:46:44.943Z,2388.00
2018-12-31T09:47:44.914Z,2544.00
2018-12-31T09:48:44.896Z,2588.00
2018-12-31T09:49:44.890Z,2388.00
2018-12-31T09:50:44.876Z,2200.00
2018-12-31T09:51:44.897Z,1796.00
2018-12-31T09:52:44.876Z,1280.00
2018-12-31T09:53:44.848Z,1176.00
2018-12-31T09:54:44.831Z,1220.00
2018-12-31T09:55:44.834Z,1192.00
2018-12-31T09:56:44.826Z,1200.00
2018-12-31T09:57:44.807Z,1244.00
2018-12-31T09:58:44.796Z,1352.00
2018-12-31T09:59:44.780Z,1436.00
2018-12-31T10:00:44.770Z,1424.00
2018-12-31T10:01:44.779Z,1368.00
2018-12-31T10:02:44.748Z,1264.00
2018-12-31T10:03:44.739Z,1180.00
2018-12-31T10:04:44.724Z,1068.00
2018-12-31T10:05:44.712Z,964.00
2018-12-31T10:06:44.726Z,1000.00
2018-12-31T10:07:44.687Z,996.00
2018-12-31T10:08:49.150Z,1040.00
2018-12-31T10:09:44.668Z,1048.00
2018-12-31T10:10:44.654Z,1040.00
2018-12-31T10:11:44.645Z,1144.00
2018-12-31T10:12:44.646Z,1224.00
2018-12-31T10:13:44.649Z,1296.00
2018-12-31T10:14:44.619Z,1200.00
2018-12-31T10:15:44.605Z,1068.00
2018-12-31T10:16:44.589Z,964.00
2018-12-31T10:17:44.577Z,896.00
2018-12-31T10:18:44.589Z,1036.00
2018-12-31T10:19:44.564Z,1344.00
2018-12-31T10:20:44.557Z,1444.00
2018-12-31T10:21:44.533Z,1436.00
2018-12-31T10:22:44.525Z,1240.00
2018-12-31T10:23:44.543Z,1176.00
2018-12-31T10:24:44.514Z,1268.00
2018-12-31T10:25:44.506Z,1424.00
2018-12-31T10:26:44.479Z,1504.00
2018-12-31T10:27:44.466Z,1536.00
2018-12-31T10:28:44.454Z,1556.00
2018-12-31T10:29:44.456Z,1688.00
2018-12-31T10:30:44.440Z,1784.00
2018-12-31T10:31:44.430Z,1904.00
2018-12-31T10:32:44.423Z,1968.00
2018-12-31T10:33:44.399Z,1952.00
2018-12-31T10:34:44.404Z,1900.00
2018-12-31T10:35:44.376Z,1836.00
2018-12-31T10:36:44.366Z,1936.00
2018-12-31T10:37:44.367Z,1992.00
2018-12-31T10:38:44.342Z,2060.00
2018-12-31T10:39:44.359Z,2068.00
2018-12-31T10:40:44.413Z,2056.00
2018-12-31T10:41:44.310Z,2112.00
2018-12-31T10:42:44.301Z,2124.00
2018-12-31T10:43:44.295Z,2104.00
2018-12-31T10:44:44.299Z,2080.00
2018-12-31T10:45:44.265Z,2108.00
2018-12-31T10:46:44.263Z,2076.00
2018-12-31T10:47:44.246Z,1932.00
2018-12-31T10:48:44.250Z,1780.00
2018-12-31T10:49:44.233Z,1824.00
2018-12-31T10:50:44.211Z,1880.00
2018-12-31T10:51:44.199Z,1632.00
2018-12-31T10:52:44.205Z,1392.00
2018-12-31T10:53:44.185Z,1460.00
2018-12-31T10:54:44.192Z,1816.00
2018-12-31T10:55:44.162Z,2268.00
2018-12-31T10:56:44.145Z,2344.00
2018-12-31T10:57:44.138Z,2196.00
2018-12-31T10:58:44.135Z,2100.00
2018-12-31T10:59:44.133Z,2360.00
2018-12-31T11:00:44.098Z,2508.00
2018-12-31T11:01:44.099Z,2688.00
2018-12-31T11:02:44.083Z,2304.00
2018-12-31T11:03:44.070Z,1964.00
2018-12-31T11:04:44.091Z,1724.00
2018-12-31T11:05:44.050Z,1964.00
2018-12-31T11:06:44.031Z,2164.00
2018-12-31T11:07:44.022Z,2364.00
2018-12-31T11:08:44.014Z,2712.00
2018-12-31T11:09:44.038Z,2936.00
2018-12-31T11:10:43.989Z,3048.00
2018-12-31T11:11:43.993Z,3192.00
2018-12-31T11:12:43.970Z,3520.00
2018-12-31T11:13:43.955Z,3656.00
2018-12-31T11:14:43.968Z,3492.00
2018-12-31T11:15:43.939Z,3604.00
2018-12-31T11:16:43.924Z,3824.00
2018-12-31T11:17:43.910Z,3936.00
2018-12-31T11:18:43.910Z,4032.00
2018-12-31T11:19:43.890Z,4160.00
2018-12-31T11:20:43.905Z,4032.00
2018-12-31T11:21:43.869Z,3976.00
2018-12-31T11:22:43.869Z,3952.00
2018-12-31T11:23:43.844Z,3824.00
2018-12-31T11:24:43.835Z,3748.00
2018-12-31T11:25:43.900Z,3724.00
2018-12-31T11:26:43.814Z,3600.00
2018-12-31T11:27:43.824Z,3596.00
2018-12-31T11:28:43.815Z,3476.00
2018-12-31T11:29:43.787Z,3692.00
2018-12-31T11:30:43.792Z,3592.00
2018-12-31T11:31:43.756Z,3688.00
2018-12-31T11:32:43.746Z,3604.00
2018-12-31T11:33:43.738Z,3648.00
2018-12-31T11:34:43.725Z,3552.00
2018-12-31T11:35:43.746Z,3556.00
2018-12-31T11:36:43.737Z,3232.00
2018-12-31T11:37:43.688Z,3156.00
2018-12-31T11:38:43.685Z,2908.00
2018-12-31T11:39:43.669Z,2820.00
2018-12-31T11:40:43.690Z,3060.00
2018-12-31T11:41:43.644Z,4820.00
2018-12-31T11:42:43.638Z,6496.00
2018-12-31T11:43:43.637Z,7192.00
2018-12-31T11:44:43.612Z,7128.00
2018-12-31T11:45:43.622Z,7792.00
2018-12-31T11:46:43.596Z,8452.00
2018-12-31T11:47:43.579Z,7488.00
2018-12-31T11:48:43.572Z,5904.00
2018-12-31T11:49:43.557Z,4044.00
2018-12-31T11:50:43.575Z,3104.00
2018-12-31T11:51:43.536Z,2764.00
2018-12-31T11:52:43.533Z,2664.00
2018-12-31T11:53:43.511Z,2592.00
2018-12-31T11:54:43.515Z,2492.00
2018-12-31T11:55:43.502Z,2524.00
2018-12-31T11:56:43.492Z,2320.00
2018-12-31T11:57:43.472Z,2280.00
2018-12-31T11:58:43.470Z,2500.00
2018-12-31T11:59:43.447Z,3696.00
2018-12-31T12:00:43.462Z,4952.00
2018-12-31T12:01:43.428Z,6000.00
2018-12-31T12:02:43.416Z,6472.00
2018-12-31T12:03:43.399Z,6472.00
2018-12-31T12:04:43.412Z,5488.00
2018-12-31T12:05:43.432Z,5484.00
2018-12-31T12:06:43.372Z,6240.00
2018-12-31T12:07:43.367Z,6292.00
2018-12-31T12:08:43.356Z,6404.00
2018-12-31T12:09:43.336Z,7220.00
2018-12-31T12:10:43.325Z,6204.00
2018-12-31T12:11:43.357Z,6444.00
2018-12-31T12:12:43.310Z,5092.00
2018-12-31T12:13:43.290Z,4744.00
2018-12-31T12:14:43.282Z,3992.00
2018-12-31T12:15:43.279Z,3480.00
2018-12-31T12:16:43.283Z,2948.00
2018-12-31T12:17:43.256Z,2632.00
2018-12-31T12:18:43.240Z,2448.00
2018-12-31T12:19:43.225Z,2352.00
2018-12-31T12:20:43.219Z,2664.00
2018-12-31T12:21:43.223Z,3832.00
2018-12-31T12:22:43.194Z,3708.00
2018-12-31T12:23:43.181Z,5504.00
2018-12-31T12:24:43.171Z,5908.00
2018-12-31T12:25:43.159Z,5712.00
2018-12-31T12:26:43.168Z,6304.00
2018-12-31T12:27:43.142Z,4988.00
2018-12-31T12:28:43.128Z,4288.00
2018-12-31T12:29:43.126Z,4704.00
2018-12-31T12:30:43.113Z,5628.00
2018-12-31T12:31:43.115Z,5168.00
2018-12-31T12:32:43.091Z,5236.00
2018-12-31T12:33:43.103Z,5756.00
2018-12-31T12:34:43.086Z,6548.00
2018-12-31T12:35:43.051Z,6424.00
2018-12-31T12:36:43.064Z,5548.00
2018-12-31T12:37:48.485Z,4576.00
2018-12-31T12:38:44.031Z,4216.00
2018-12-31T12:39:43.018Z,3828.00
2018-12-31T12:40:43.001Z,3604.00
2018-12-31T12:41:43.010Z,3436.00
2018-12-31T12:42:42.983Z,3248.00
2018-12-31T12:43:42.962Z,3184.00
2018-12-31T12:44:42.958Z,3032.00
2018-12-31T12:45:42.952Z,2968.00
2018-12-31T12:46:42.930Z,2916.00
2018-12-31T12:47:42.948Z,3116.00
2018-12-31T12:48:42.908Z,3448.00
2018-12-31T12:49:42.897Z,4204.00